createdAt,value
2023-08-29T00:02:01.143Z,100946.50
2023-08-29T00:04:30.723Z,100947.03
2023-08-29T00:07:00.289Z,100959.00
2023-08-29T00:09:29.846Z,100961.88
2023-08-29T00:12:02.034Z,100957.25
2023-08-29T00:14:31.596Z,100955.56
2023-08-29T00:17:01.264Z,100954.81
2023-08-29T00:19:30.821Z,100948.50
2023-08-29T00:22:00.367Z,100941.97
2023-08-29T00:24:31.489Z,100936.56
2023-08-29T00:27:04.168Z,100943.16
2023-08-29T00:29:33.725Z,100935.81
2023-08-29T00:32:03.349Z,100936.31
2023-08-29T00:34:32.933Z,100932.88
2023-08-29T00:37:02.462Z,100947.56
2023-08-29T00:39:31.982Z,100950.41
2023-08-29T00:42:04.172Z,100943.28
2023-08-29T00:44:33.688Z,100946.06
2023-08-29T00:47:03.433Z,100945.31
2023-08-29T00:49:32.969Z,100936.25
2023-08-29T00:52:04.734Z,100935.81
2023-08-29T00:54:34.384Z,100920.31
2023-08-29T00:57:06.926Z,100921.81
2023-08-29T00:59:36.701Z,100916.88
2023-08-29T01:02:06.352Z,100914.13
2023-08-29T01:04:35.931Z,100916.00
2023-08-29T01:07:06.534Z,100918.41
2023-08-29T01:09:37.125Z,100925.84
2023-08-29T01:12:15.543Z,100937.56
2023-08-29T01:14:52.156Z,100947.16
2023-08-29T01:17:26.756Z,100950.72
2023-08-29T01:19:56.759Z,100948.16
2023-08-29T01:22:31.283Z,100947.38
2023-08-29T01:25:04.725Z,100943.00
2023-08-29T01:27:37.632Z,100961.84
2023-08-29T01:30:08.135Z,100976.38
2023-08-29T01:32:37.844Z,100987.22
2023-08-29T01:35:09.786Z,100996.59
2023-08-29T01:37:39.316Z,100989.41
2023-08-29T01:40:10.589Z,100971.59
2023-08-29T01:42:42.748Z,100978.28
2023-08-29T01:45:13.020Z,100978.56
2023-08-29T01:47:44.124Z,100977.50
2023-08-29T01:50:15.512Z,100981.16
2023-08-29T01:52:45.118Z,100979.78
2023-08-29T01:55:14.686Z,100971.41
2023-08-29T01:57:47.515Z,100973.56
2023-08-29T02:00:17.950Z,100979.16
2023-08-29T02:02:47.690Z,100986.19
2023-08-29T02:05:17.311Z,100987.53
2023-08-29T02:07:46.878Z,100993.25
2023-08-29T02:10:16.488Z,101005.03
2023-08-29T02:12:48.611Z,101009.91
2023-08-29T02:15:18.283Z,101007.72
2023-08-29T02:17:48.480Z,101003.47
2023-08-29T02:20:18.251Z,101009.28
2023-08-29T02:22:48.105Z,101010.78
2023-08-29T02:25:17.714Z,101013.78
2023-08-29T02:27:50.239Z,101015.06
2023-08-29T02:30:20.113Z,101016.22
2023-08-29T02:32:49.761Z,101010.09
2023-08-29T02:35:19.416Z,101007.06
2023-08-29T02:37:48.943Z,101011.06
2023-08-29T02:40:18.718Z,101008.81
2023-08-29T02:42:50.807Z,101004.47
2023-08-29T02:45:20.381Z,101007.38
2023-08-29T02:47:49.965Z,101012.66
2023-08-29T02:50:19.862Z,101009.09
2023-08-29T02:52:49.436Z,101009.72
2023-08-29T02:55:19.061Z,101006.72
2023-08-29T02:57:51.222Z,101003.84
2023-08-29T03:00:21.744Z,101005.34
2023-08-29T03:02:51.395Z,100999.97
2023-08-29T03:05:21.018Z,100996.91
2023-08-29T03:07:50.577Z,100979.81
2023-08-29T03:10:20.948Z,100969.63
2023-08-29T03:12:54.196Z,100961.53
2023-08-29T03:15:24.057Z,100950.75
2023-08-29T03:17:53.693Z,100949.25
2023-08-29T03:20:23.796Z,100951.28
2023-08-29T03:22:53.340Z,100965.34
2023-08-29T03:25:23.286Z,100957.53
2023-08-29T03:27:55.454Z,100956.00
2023-08-29T03:30:25.026Z,100953.59
2023-08-29T03:32:55.164Z,100944.97
2023-08-29T03:35:24.842Z,100945.47
2023-08-29T03:37:54.366Z,100951.03
2023-08-29T03:40:24.095Z,100946.94
2023-08-29T03:42:56.245Z,100940.78
2023-08-29T03:45:25.796Z,100946.50
2023-08-29T03:47:55.385Z,100943.06
2023-08-29T03:50:25.054Z,100949.63
2023-08-29T03:52:54.635Z,100949.09
2023-08-29T03:55:24.214Z,100954.53
2023-08-29T03:57:56.325Z,100958.06
2023-08-29T04:00:25.939Z,100951.16
2023-08-29T04:02:55.723Z,100954.22
2023-08-29T04:05:26.033Z,100943.41
2023-08-29T04:07:55.696Z,100949.84
2023-08-29T04:10:25.320Z,100946.47
2023-08-29T04:12:57.540Z,100949.03
2023-08-29T04:15:27.118Z,100948.13
2023-08-29T04:17:56.695Z,100940.19
2023-08-29T04:20:26.318Z,100947.75
2023-08-29T04:22:55.934Z,100948.09
2023-08-29T04:25:27.366Z,100949.00
2023-08-29T04:27:59.750Z,100943.25
2023-08-29T04:30:29.356Z,100945.34
2023-08-29T04:33:00.999Z,100946.53
2023-08-29T04:35:30.806Z,100935.03
2023-08-29T04:38:00.388Z,100929.00
2023-08-29T04:40:29.987Z,100909.59
2023-08-29T04:43:02.159Z,100900.78
2023-08-29T04:45:31.779Z,100895.81
2023-08-29T04:48:01.392Z,100889.22
2023-08-29T04:50:31.579Z,100900.22
2023-08-29T04:53:01.156Z,100898.56
2023-08-29T04:55:30.805Z,100901.72
2023-08-29T04:58:03.557Z,100908.06
2023-08-29T05:00:33.446Z,100894.72
2023-08-29T05:03:05.550Z,100880.91
2023-08-29T05:05:35.296Z,100882.13
2023-08-29T05:08:05.602Z,100873.03
2023-08-29T05:10:35.505Z,100878.50
2023-08-29T05:13:07.974Z,100876.72
2023-08-29T05:15:37.591Z,100874.53
2023-08-29T05:18:08.160Z,100872.19
2023-08-29T05:20:37.930Z,100859.19
2023-08-29T05:23:07.927Z,100846.09
2023-08-29T05:25:37.553Z,100854.47
2023-08-29T05:28:09.870Z,100862.47
2023-08-29T05:30:39.496Z,100866.72
2023-08-29T05:33:09.069Z,100869.69
2023-08-29T05:35:38.630Z,100871.56
2023-08-29T05:38:08.620Z,100855.03
2023-08-29T05:40:38.327Z,100857.72
2023-08-29T05:43:10.557Z,100874.75
2023-08-29T05:45:40.124Z,100876.13
2023-08-29T05:48:10.194Z,100883.63
2023-08-29T05:50:42.728Z,100894.22
2023-08-29T05:53:12.335Z,100890.28
2023-08-29T05:55:41.949Z,100902.28
2023-08-29T05:58:14.070Z,100901.69
2023-08-29T06:00:43.749Z,100886.81
2023-08-29T06:03:13.434Z,100883.72
2023-08-29T06:05:43.556Z,100863.75
2023-08-29T06:08:19.686Z,100867.00
2023-08-29T06:10:50.170Z,100865.97
2023-08-29T06:13:22.375Z,100865.03
2023-08-29T06:15:51.925Z,100861.59
2023-08-29T06:18:21.514Z,100860.91
2023-08-29T06:20:51.212Z,100857.06
2023-08-29T06:23:20.736Z,100848.34
2023-08-29T06:25:50.472Z,100853.28
2023-08-29T06:28:22.602Z,100852.53
2023-08-29T06:30:52.271Z,100865.69
2023-08-29T06:33:21.838Z,100865.09
2023-08-29T06:35:51.401Z,100868.53
2023-08-29T06:38:20.969Z,100861.72
2023-08-29T06:40:57.503Z,100845.22
2023-08-29T06:43:30.546Z,100845.97
2023-08-29T06:46:00.265Z,100845.97
2023-08-29T06:48:29.963Z,100856.41
2023-08-29T06:50:59.545Z,100848.13
2023-08-29T06:53:29.069Z,100837.47
2023-08-29T06:55:58.704Z,100834.81
2023-08-29T06:58:30.861Z,100840.03
2023-08-29T07:01:00.524Z,100840.47
2023-08-29T07:03:30.236Z,100830.53
2023-08-29T07:06:00.688Z,100821.34
2023-08-29T07:08:30.206Z,100820.75
2023-08-29T07:10:59.813Z,100822.44
2023-08-29T07:13:31.911Z,100831.19
2023-08-29T07:16:01.497Z,100841.22
2023-08-29T07:18:31.158Z,100851.56
2023-08-29T07:21:01.256Z,100863.66
2023-08-29T07:23:31.233Z,100870.69
2023-08-29T07:26:01.598Z,100882.16
2023-08-29T07:28:33.770Z,100905.75
2023-08-29T07:31:03.479Z,100919.13
2023-08-29T07:33:33.640Z,100919.94
2023-08-29T07:36:03.729Z,100925.34
2023-08-29T07:38:33.390Z,100926.38
2023-08-29T07:41:03.232Z,100923.19
2023-08-29T07:43:35.396Z,100938.72
2023-08-29T07:46:05.067Z,100932.16
2023-08-29T07:48:35.431Z,100921.25
2023-08-29T07:51:05.034Z,100925.56
2023-08-29T07:53:34.566Z,100924.63
2023-08-29T07:56:04.504Z,100932.06
2023-08-29T07:58:36.689Z,100937.72
2023-08-29T08:01:06.378Z,100952.25
2023-08-29T08:03:36.048Z,100977.59
2023-08-29T08:06:05.639Z,100991.91
2023-08-29T08:08:35.187Z,101004.66
2023-08-29T08:11:06.226Z,101004.75
2023-08-29T08:13:38.854Z,101015.25
2023-08-29T08:16:08.443Z,101012.03
2023-08-29T08:18:38.011Z,101007.69
2023-08-29T08:21:07.625Z,101011.03
2023-08-29T08:23:37.169Z,101017.13
2023-08-29T08:26:06.720Z,101031.97
2023-08-29T08:28:38.816Z,101032.91
2023-08-29T08:31:08.804Z,101039.69
2023-08-29T08:33:38.368Z,101049.13
2023-08-29T08:36:08.297Z,101057.56
2023-08-29T08:38:38.036Z,101066.19
2023-08-29T08:41:08.040Z,101073.59
2023-08-29T08:43:42.438Z,101079.50
2023-08-29T08:46:12.124Z,101078.78
2023-08-29T08:48:42.046Z,101076.19
2023-08-29T08:51:13.177Z,101082.75
2023-08-29T08:53:44.275Z,101086.28
2023-08-29T08:56:13.909Z,101076.94
2023-08-29T08:58:46.128Z,101073.19
2023-08-29T09:01:16.365Z,101077.75
2023-08-29T09:03:46.511Z,101073.59
2023-08-29T09:06:18.781Z,101071.19
2023-08-29T09:08:48.417Z,101082.41
2023-08-29T09:11:21.366Z,101074.94
2023-08-29T09:13:53.732Z,101080.47
2023-08-29T09:16:24.901Z,101077.03
2023-08-29T09:18:54.795Z,101070.84
2023-08-29T09:21:25.221Z,101069.59
2023-08-29T09:23:58.186Z,101066.28
2023-08-29T09:26:33.945Z,101069.78
2023-08-29T09:29:19.605Z,101060.09
2023-08-29T09:31:49.724Z,101060.41
2023-08-29T09:34:30.299Z,101067.19
2023-08-29T09:37:01.005Z,101071.06
2023-08-29T09:39:30.971Z,101072.34
2023-08-29T09:42:04.979Z,101077.56
2023-08-29T09:44:39.866Z,101077.09
2023-08-29T09:47:10.052Z,101080.94
2023-08-29T09:49:45.251Z,101086.53
2023-08-29T09:52:14.991Z,101091.00
2023-08-29T09:54:48.104Z,101091.00
2023-08-29T09:57:19.588Z,101093.75
2023-08-29T09:59:52.834Z,101106.63
2023-08-29T10:02:22.624Z,101106.44
2023-08-29T10:04:57.374Z,101110.78
2023-08-29T10:07:28.938Z,101129.88
2023-08-29T10:09:59.171Z,101137.25
2023-08-29T10:12:30.560Z,101142.59
2023-08-29T10:15:05.400Z,101142.72
2023-08-29T10:17:35.913Z,101152.03
2023-08-29T10:20:11.165Z,101174.28
2023-08-29T10:22:41.482Z,101184.31
2023-08-29T10:25:11.957Z,101198.72
2023-08-29T10:27:41.695Z,101214.22
2023-08-29T10:30:15.986Z,101233.13
2023-08-29T10:32:47.548Z,101236.22
2023-08-29T10:35:24.089Z,101257.56
2023-08-29T10:37:54.811Z,101286.97
2023-08-29T10:40:24.786Z,101281.56
2023-08-29T10:42:55.973Z,101271.50
2023-08-29T10:45:52.038Z,101229.75
2023-08-29T10:48:22.440Z,101227.09
2023-08-29T10:51:12.943Z,101227.28
2023-08-29T10:53:44.383Z,101223.81
2023-08-29T10:56:14.392Z,101213.38
2023-08-29T10:58:45.826Z,101228.69
2023-08-29T11:01:35.474Z,101273.41
2023-08-29T11:04:07.438Z,101223.34
2023-08-29T11:06:55.264Z,101168.00
2023-08-29T11:09:26.298Z,101077.66
2023-08-29T11:12:14.072Z,100952.28
2023-08-29T11:14:54.197Z,100850.22
2023-08-29T11:17:29.511Z,100829.47
2023-08-29T11:20:00.213Z,100903.84
2023-08-29T11:22:31.050Z,100784.25
2023-08-29T11:25:01.657Z,100793.94
2023-08-29T11:27:32.635Z,100819.91
2023-08-29T11:30:22.214Z,100771.16
2023-08-29T11:32:56.621Z,100792.47
2023-08-29T11:35:26.179Z,100830.78
2023-08-29T11:37:55.763Z,100786.13
2023-08-29T11:40:37.975Z,100765.31
2023-08-29T11:43:52.530Z,100703.72
2023-08-29T11:46:06.895Z,100796.03
2023-08-29T11:48:39.153Z,100731.53
2023-08-29T11:51:09.877Z,100739.31
2023-08-29T11:53:40.593Z,100686.00
2023-08-29T11:56:13.705Z,100710.44
2023-08-29T11:58:43.365Z,100694.09
2023-08-29T12:01:13.011Z,100693.25
2023-08-29T12:03:45.256Z,100653.97
2023-08-29T12:06:15.755Z,100624.34
2023-08-29T12:08:46.305Z,100614.75
2023-08-29T12:11:17.992Z,100634.09
2023-08-29T12:14:02.496Z,100670.75
2023-08-29T12:16:32.654Z,100671.66
2023-08-29T12:19:15.246Z,100629.06
2023-08-29T12:21:44.818Z,100572.47
2023-08-29T12:24:15.679Z,100541.97
2023-08-29T12:26:45.223Z,100589.91
2023-08-29T12:29:14.727Z,100602.94
2023-08-29T12:31:44.423Z,100615.19
2023-08-29T12:34:16.558Z,100608.28
2023-08-29T12:36:46.131Z,100564.66
2023-08-29T12:39:17.381Z,100565.53
2023-08-29T12:41:47.030Z,100585.56
2023-08-29T12:44:16.637Z,100535.06
2023-08-29T12:46:46.293Z,100525.47
2023-08-29T12:49:18.930Z,100478.34
2023-08-29T12:51:48.553Z,100483.59
2023-08-29T12:54:18.142Z,100514.13
2023-08-29T12:56:47.900Z,100523.72
2023-08-29T12:59:17.429Z,100480.13
2023-08-29T13:01:47.025Z,100465.28
2023-08-29T13:04:19.228Z,100457.41
2023-08-29T13:06:48.793Z,100453.06
2023-08-29T13:09:34.724Z,100451.31
2023-08-29T13:12:06.233Z,100441.75
2023-08-29T13:14:38.766Z,100444.22
2023-08-29T13:17:12.014Z,100429.34
2023-08-29T13:19:45.843Z,100459.88
2023-08-29T13:22:15.396Z,100455.63
2023-08-29T13:24:44.987Z,100420.72
2023-08-29T13:27:14.534Z,100362.97
2023-08-29T13:29:44.100Z,100314.88
2023-08-29T13:32:13.645Z,100294.81
2023-08-29T13:34:45.768Z,100211.16
2023-08-29T13:37:15.384Z,100146.72
2023-08-29T13:39:47.523Z,100135.41
2023-08-29T13:42:18.661Z,100150.97
2023-08-29T13:44:48.223Z,100124.84
2023-08-29T13:47:17.824Z,100135.25
2023-08-29T13:49:50.054Z,100214.69
2023-08-29T13:52:19.690Z,100165.16
2023-08-29T13:54:49.437Z,100190.28
2023-08-29T13:57:19.076Z,100114.22
2023-08-29T13:59:48.588Z,100113.31
2023-08-29T14:02:18.881Z,100064.50
2023-08-29T14:04:51.118Z,100110.16
2023-08-29T14:07:21.936Z,100031.06
2023-08-29T14:09:51.578Z,100050.91
2023-08-29T14:12:21.190Z,100088.31
2023-08-29T14:14:51.757Z,100135.50
2023-08-29T14:17:21.867Z,100220.94
2023-08-29T14:19:54.040Z,100166.13
2023-08-29T14:22:23.563Z,100180.97
2023-08-29T14:24:53.122Z,100162.63
2023-08-29T14:27:22.740Z,100200.03
2023-08-29T14:29:52.339Z,100230.69
2023-08-29T14:32:22.474Z,100259.50
2023-08-29T14:34:54.665Z,100288.25
2023-08-29T14:37:24.254Z,100335.31
2023-08-29T14:39:53.848Z,100188.72
2023-08-29T14:42:23.383Z,100152.03
2023-08-29T14:44:52.941Z,100075.47
2023-08-29T14:47:22.515Z,100205.34
2023-08-29T14:49:55.226Z,100289.06
2023-08-29T14:52:26.752Z,100192.16
2023-08-29T14:54:56.623Z,100217.44
2023-08-29T14:57:26.155Z,100068.25
2023-08-29T14:59:55.759Z,100078.75
2023-08-29T15:02:25.682Z,100052.69
2023-08-29T15:04:57.837Z,100034.44
2023-08-29T15:07:27.490Z,100119.03
2023-08-29T15:09:57.101Z,100221.06
2023-08-29T15:12:26.658Z,100090.31
2023-08-29T15:14:56.243Z,100089.44
2023-08-29T15:17:26.571Z,100069.38
2023-08-29T15:19:58.949Z,100065.03
2023-08-29T15:22:29.721Z,100169.69
2023-08-29T15:24:59.329Z,100347.56
2023-08-29T15:27:28.881Z,100203.69
2023-08-29T15:29:58.537Z,100245.53
2023-08-29T15:32:28.367Z,100186.28
2023-08-29T15:35:06.512Z,100142.63
2023-08-29T15:37:36.146Z,100188.84
2023-08-29T15:40:06.002Z,100174.97
2023-08-29T15:42:35.524Z,100246.44
2023-08-29T15:45:05.367Z,100259.56
2023-08-29T15:47:34.927Z,100269.13
2023-08-29T15:50:07.563Z,100306.59
2023-08-29T15:52:37.136Z,100304.91
2023-08-29T15:55:07.526Z,100353.69
2023-08-29T15:57:37.088Z,100397.28
2023-08-29T16:00:13.814Z,100429.47
2023-08-29T16:02:43.453Z,100438.16
2023-08-29T16:05:16.320Z,100476.44
2023-08-29T16:07:47.613Z,100497.38
2023-08-29T16:10:17.226Z,100502.59
2023-08-29T16:12:47.526Z,100517.41
2023-08-29T16:15:17.789Z,100529.53
2023-08-29T16:17:48.537Z,100522.56
2023-08-29T16:20:22.034Z,100517.31
2023-08-29T16:22:51.602Z,100517.28
2023-08-29T16:25:21.373Z,100512.91
2023-08-29T16:27:50.927Z,100501.53
2023-08-29T16:30:20.508Z,100501.47
2023-08-29T16:32:50.118Z,100474.44
2023-08-29T16:35:22.300Z,100484.03
2023-08-29T16:37:51.853Z,100481.41
2023-08-29T16:40:21.750Z,100452.72
2023-08-29T16:42:51.424Z,100424.81
2023-08-29T16:47:14.246Z,100369.09
2023-08-29T16:49:42.796Z,100380.34
2023-08-29T16:52:11.441Z,100389.06
2023-08-29T16:54:39.695Z,100384.72
2023-08-29T16:57:07.985Z,100394.19
2023-08-29T16:59:54.620Z,100401.13
2023-08-29T17:02:25.124Z,100421.16
2023-08-29T17:04:55.032Z,100417.59
2023-08-29T17:07:24.856Z,100424.56
2023-08-29T17:09:55.560Z,100428.91
2023-08-29T17:12:26.150Z,100455.03
2023-08-29T17:14:56.108Z,100444.44
2023-08-29T17:17:28.243Z,100438.34
2023-08-29T17:19:57.910Z,100488.03
2023-08-29T17:22:28.009Z,100478.53
2023-08-29T17:24:57.847Z,100461.13
2023-08-29T17:27:28.487Z,100470.56
2023-08-29T17:29:58.655Z,100480.84
2023-08-29T17:32:30.958Z,100506.94
2023-08-29T17:35:00.967Z,100500.78
2023-08-29T17:37:30.806Z,100514.53
2023-08-29T17:40:01.834Z,100557.03
2023-08-29T17:42:31.799Z,100593.38
2023-08-29T17:45:02.028Z,100630.66
2023-08-29T17:47:36.408Z,100655.06
2023-08-29T17:50:06.355Z,100668.19
2023-08-29T17:52:36.004Z,100685.00
2023-08-29T17:55:05.976Z,100697.72
2023-08-29T17:57:38.795Z,100763.75
2023-08-29T18:00:11.440Z,100774.06
2023-08-29T18:02:44.050Z,100822.47
2023-08-29T18:05:13.914Z,100866.00
2023-08-29T18:07:43.506Z,100910.78
2023-08-29T18:10:14.491Z,100982.63
2023-08-29T18:12:44.705Z,101047.44
2023-08-29T18:15:14.537Z,101081.91
2023-08-29T18:17:46.770Z,101113.81
2023-08-29T18:20:16.503Z,101132.19
2023-08-29T18:22:46.102Z,101153.22
2023-08-29T18:25:15.777Z,101153.25
2023-08-29T18:27:45.336Z,101158.22
2023-08-29T18:30:15.900Z,101170.09
2023-08-29T18:32:49.928Z,101189.81
2023-08-29T18:35:19.850Z,101219.22
2023-08-29T18:37:49.421Z,101226.13
2023-08-29T18:40:21.234Z,101225.16
2023-08-29T18:42:53.895Z,101222.06
2023-08-29T18:45:23.516Z,101228.88
2023-08-29T18:47:57.405Z,101250.25
2023-08-29T18:50:28.221Z,101257.88
2023-08-29T18:52:58.102Z,101261.22
2023-08-29T18:55:30.681Z,101267.94
2023-08-29T18:58:01.604Z,101274.09
2023-08-29T19:00:34.610Z,101275.69
2023-08-29T19:03:08.527Z,101272.94
2023-08-29T19:05:38.209Z,101274.53
2023-08-29T19:08:09.062Z,101267.63
2023-08-29T19:10:45.242Z,101269.31
2023-08-29T19:13:15.160Z,101275.53
2023-08-29T19:15:44.708Z,101268.66
2023-08-29T19:18:17.319Z,101282.06
2023-08-29T19:20:47.440Z,101280.94
2023-08-29T19:23:17.727Z,101277.00
2023-08-29T19:25:47.313Z,101251.03
2023-08-29T19:28:17.159Z,101233.75
2023-08-29T19:30:46.780Z,101217.22
2023-08-29T19:33:18.955Z,101196.34
2023-08-29T19:35:48.593Z,101177.09
2023-08-29T19:38:18.378Z,101158.88
2023-08-29T19:40:47.919Z,101149.91
2023-08-29T19:43:17.811Z,101111.75
2023-08-29T19:45:47.371Z,101100.50
2023-08-29T19:48:22.087Z,101092.34
2023-08-29T19:50:54.166Z,101073.97
2023-08-29T19:53:24.039Z,101062.44
2023-08-29T19:55:54.918Z,101044.59
2023-08-29T19:58:25.345Z,101027.84
2023-08-29T20:00:55.276Z,101004.25
2023-08-29T20:03:27.640Z,100985.50
2023-08-29T20:05:57.245Z,100973.56
2023-08-29T20:08:26.937Z,100967.59
2023-08-29T20:10:56.822Z,100956.34
2023-08-29T20:13:26.489Z,100946.19
2023-08-29T20:15:56.021Z,100935.75
2023-08-29T20:18:28.154Z,100944.13
2023-08-29T20:20:57.669Z,100945.28
2023-08-29T20:23:27.285Z,100944.78
2023-08-29T20:25:57.891Z,100938.53
2023-08-29T20:28:27.421Z,100944.50
2023-08-29T20:30:59.871Z,100957.84
2023-08-29T20:33:32.822Z,100960.91
2023-08-29T20:36:02.394Z,100969.91
2023-08-29T20:38:31.988Z,100973.97
2023-08-29T20:41:01.514Z,100980.16
2023-08-29T20:43:31.545Z,100987.13
2023-08-29T20:46:01.124Z,100987.84
2023-08-29T20:48:33.409Z,100985.09
2023-08-29T20:51:04.601Z,100981.47
2023-08-29T20:53:35.537Z,100976.34
2023-08-29T20:56:05.295Z,100979.50
2023-08-29T20:58:34.839Z,100974.88
2023-08-29T21:01:05.904Z,100971.50
2023-08-29T21:03:38.106Z,100966.38
2023-08-29T21:06:07.776Z,100965.75
2023-08-29T21:08:37.340Z,100961.72
2023-08-29T21:11:06.904Z,100949.84
2023-08-29T21:13:36.464Z,100938.63
2023-08-29T21:16:06.468Z,100931.75
2023-08-29T21:18:38.635Z,100924.09
2023-08-29T21:21:08.857Z,100919.75
2023-08-29T21:23:38.481Z,100922.22
2023-08-29T21:26:08.319Z,100919.19
2023-08-29T21:28:37.854Z,100915.53
2023-08-29T21:31:09.046Z,100914.63
2023-08-29T21:33:43.483Z,100924.16
2023-08-29T21:36:13.079Z,100921.59
2023-08-29T21:38:46.813Z,100920.28
2023-08-29T21:41:17.641Z,100918.28
2023-08-29T21:43:47.233Z,100902.22
2023-08-29T21:46:16.859Z,100894.38
2023-08-29T21:48:49.031Z,100882.22
2023-08-29T21:51:22.163Z,100869.25
2023-08-29T21:53:51.776Z,100857.19
2023-08-29T21:56:22.148Z,100848.53
2023-08-29T21:58:51.698Z,100833.94
2023-08-29T22:01:21.568Z,100821.94
2023-08-29T22:03:53.845Z,100821.91
2023-08-29T22:06:23.402Z,100811.75
2023-08-29T22:08:52.967Z,100812.31
2023-08-29T22:11:22.692Z,100799.16
2023-08-29T22:13:52.400Z,100788.47
2023-08-29T22:16:22.056Z,100788.41
2023-08-29T22:18:54.247Z,100783.09
2023-08-29T22:21:23.802Z,100763.28
2023-08-29T22:23:53.374Z,100760.81
2023-08-29T22:26:22.946Z,100750.53
2023-08-29T22:28:52.470Z,100749.75
2023-08-29T22:31:22.096Z,100734.97
2023-08-29T22:33:54.275Z,100749.53
2023-08-29T22:36:23.819Z,100743.41
2023-08-29T22:38:53.982Z,100729.47
2023-08-29T22:41:34.127Z,100726.81
2023-08-29T22:44:08.182Z,100721.63
2023-08-29T22:46:37.783Z,100720.69
2023-08-29T22:49:09.934Z,100717.22
2023-08-29T22:51:39.497Z,100709.34
2023-08-29T22:54:09.388Z,100711.28
2023-08-29T22:56:38.893Z,100712.97
2023-08-29T22:59:08.706Z,100703.41
2023-08-29T23:01:38.453Z,100700.53
2023-08-29T23:04:10.789Z,100689.69
2023-08-29T23:06:42.760Z,100686.22
2023-08-29T23:09:13.028Z,100681.84
2023-08-29T23:11:43.792Z,100674.84
2023-08-29T23:14:24.359Z,100666.97
2023-08-29T23:16:54.331Z,100661.78
2023-08-29T23:19:27.379Z,100659.97
2023-08-29T23:21:57.167Z,100662.53
2023-08-29T23:24:26.694Z,100653.19
2023-08-29T23:26:56.294Z,100649.78
2023-08-29T23:29:26.879Z,100638.56
2023-08-29T23:31:56.472Z,100644.44
2023-08-29T23:34:29.445Z,100640.13
2023-08-29T23:36:59.009Z,100628.97
2023-08-29T23:39:28.613Z,100628.97
2023-08-29T23:42:00.565Z,100613.50
2023-08-29T23:44:30.301Z,100616.94
2023-08-29T23:46:59.996Z,100608.28
2023-08-29T23:49:32.137Z,100610.78
2023-08-29T23:52:01.759Z,100604.63
2023-08-29T23:54:31.303Z,100612.41
2023-08-29T23:57:00.912Z,100603.75
2023-08-29T23:59:30.478Z,100600.97
